Aérodrome :
LOGIN :

S'inscrire | Disclaimer

   EN    FR    IT 

 










Légende :    VFR   VFR Marginal   IFR   IFR Intensif   IFR Très Intensif
Visi : 
Plafond : 
>= 8 km
>= 3000ft
5 à 8 km
1000 à 3000 ft
1500m à 5 km
500 à 1000 ft
800 à 1500m
200 à 500 ft
< 800m
< 200 ft
Symboles :   Orages  Brouillard  Fortes neiges  Fortes précipitations  Vent > 20 kt
SIGMETs :   Divers  Orages  Givrage  Turbulence  Onde Orograph.  Cendres Volcan.







- Altitude de l'aérodrome : 1363 ft


ETIC - Grafenwohr Army Air Field

DERNIER METAR :
  • 180656Z AUTO 00000KT 9999 OVC047 M01/M02 A3016 RMK AO2 SLP239 T10141020 FZRANO $

METARs EXPIRÉS :
  • 180556Z AUTO 00000KT 9999 OVC047 M01/M02 A3015 RMK AO2 SLP235 T10131020 10000 21014 57009 FZRANO $
  • 180456Z AUTO 00000KT 9999 OVC049 M01/M02 A3015 RMK AO2 SLP235 T10111019 FZRANO $
  • 180441Z AUTO 00000KT 9999 SCT017 OVC050 M01/M02 A3016 RMK AO2 SLP239 FZRANO $
  • 180411Z AUTO 20003KT 9999 BKN019 OVC050 M01/M02 A3016 RMK AO2 SLP239 FZRANO $

TAF TAF ETIC
Valide du 18 à 06h jusqu'au 19 à 12h UTC


180604Z 1806/1912 20009KT 9999 SCT012 BKN020 610209 QNH3014INS
TEMPO 1806/1812 6000 -SN BKN012
BECMG 1811/1812 18006KT 9999 BKN020 610209 QNH3017INS
BECMG 1906/1907 29009KT 6000 -SN BKN015 6101509 QNH3005INS TX01/1812Z TNM04/1905Z
Pas de NOTAMs connus pour ce terrain.



MET'MAP, la Météo Aéronautique d'un coup d'oeil ! - Copyright ORBIFLY Décembre 2007 - Disclaimer

ORBIFLY MET'MAP TEAM :

Programmation & Développement : Alexandra Zaïnal
Conception & Développement : Baudouin d'Aumeries
Co-Programmation & Développement : Marc-Olivier Méhu
Soutien technique & logistique : Manuel Goepfert

Contact : metmap@orbifly.com




SOURCES & CREDITS :

   NOAA